»·PEaware :: ASA1982 KPDX-KSEA

ASA1982 :: KPDX-KSEA

FLIGHT INFORMATION

Flight Status: Arrived
Operator:
Alaska Airlines
More flights by this operator :: More flights under this callsign
Pilot: Kyle M. (9350)
Aircraft: AIRBUS A319
(A319)
More flights by this aircraft type
Origin: KPDX Portland Intl
United States
Destination: KSEA Seattle-Tacoma Intl
United States
More flights between these airports :: More routes between these airports
Route: COUGA KRIEG HAWKZ7
File this flight plan on PilotEdge
Remarks: CptCanada - Youtube Livestreams!
Altitude:
(Current/Filed)
20,000ft
Speed:
(Current/Filed)
425kts
Departed: 06-Dec-18 01:48 PM
Arrived: 06-Dec-18 02:17 PM
Distance/Time
Traveled:
112nm/0:29
Distance/Time
To Go:
Arrived

Flight Plot

Page will automatically refresh every two minutes.

Flight plan parsing failed; only flown route is shown


Map Options




Map Legend


Flown Route
Filed Route
Departure Airport
Arrival Airport
Navaid (VOR, NDB)
Fix

Horizontal Profiles

Position Reports

Time Latitude Longitude Heading Altitude Ground
Speed
06-Dec-18 13:19 45.587073 -122.593731 32 38ft 0kts
06-Dec-18 13:20 45.587073 -122.593731 32 38ft 0kts
06-Dec-18 13:21 45.587073 -122.593731 32 38ft 0kts
06-Dec-18 13:22 45.587073 -122.593731 32 38ft 0kts
06-Dec-18 13:23 45.587073 -122.593731 32 38ft 0kts
06-Dec-18 13:24 45.587073 -122.593731 32 38ft 0kts
06-Dec-18 13:25 45.587073 -122.593731 32 38ft 0kts
06-Dec-18 13:26 45.587073 -122.593731 32 38ft 0kts
06-Dec-18 13:27 45.587073 -122.593731 32 38ft 0kts
06-Dec-18 13:28 45.587073 -122.593731 32 38ft 0kts
06-Dec-18 13:29 45.587073 -122.593731 32 38ft 0kts
06-Dec-18 13:30 45.587073 -122.593731 32 38ft 0kts
06-Dec-18 13:31 45.587073 -122.593731 32 38ft 0kts
06-Dec-18 13:32 45.587073 -122.593731 32 38ft 0kts
06-Dec-18 13:33 45.587073 -122.593731 32 38ft 0kts
06-Dec-18 13:34 45.587073 -122.593731 32 38ft 0kts
06-Dec-18 13:35 45.587073 -122.593731 32 38ft 0kts
06-Dec-18 13:36 45.587073 -122.593731 32 38ft 0kts
06-Dec-18 13:37 45.587073 -122.593731 32 38ft 0kts
06-Dec-18 13:38 45.587073 -122.593731 32 38ft 0kts
06-Dec-18 13:39 45.586837 -122.593942 31 38ft 2kts
06-Dec-18 13:40 45.586448 -122.594061 300 38ft 1kts
06-Dec-18 13:41 45.586421 -122.594005 309 38ft 0kts
06-Dec-18 13:42 45.586421 -122.594005 309 38ft 0kts
06-Dec-18 13:44 45.587334 -122.596054 298 38ft 17kts
06-Dec-18 13:45 45.589861 -122.602536 297 38ft 18kts
06-Dec-18 13:46 45.593504 -122.598826 44 38ft 16kts
06-Dec-18 13:47 45.594643 -122.595159 118 38ft 0kts
06-Dec-18 13:48 45.585862 -122.572973 112 208ft 156kts
06-Dec-18 13:49 45.561304 -122.520490 117 2784ft 168kts
06-Dec-18 13:50 45.565350 -122.466193 14 5005ft 200kts
06-Dec-18 13:51 45.628579 -122.490170 347 6618ft 274kts
06-Dec-18 13:52 45.701849 -122.520012 344 10139ft 282kts
06-Dec-18 13:53 45.785262 -122.553765 343 11829ft 348kts
06-Dec-18 13:54 45.880227 -122.592100 343 14668ft 363kts
06-Dec-18 13:55 45.978609 -122.631835 342 17122ft 376kts
06-Dec-18 13:56 46.080399 -122.672507 344 19296ft 388kts
06-Dec-18 13:57 46.182488 -122.695626 350 20141ft 393kts
06-Dec-18 13:58 46.290386 -122.716762 350 20145ft 394kts
06-Dec-18 13:59 46.399211 -122.725559 356 18912ft 392kts
06-Dec-18 14:00 46.505075 -122.729269 356 16938ft 372kts
06-Dec-18 14:00 46.589441 -122.732323 357 15354ft 359kts
06-Dec-18 14:02 46.703246 -122.736502 357 13186ft 344kts
06-Dec-18 14:03 46.795732 -122.723804 26 11369ft 337kts
06-Dec-18 14:03 46.856004 -122.653776 41 10114ft 323kts
06-Dec-18 14:04 46.914209 -122.572244 44 9981ft 273kts
06-Dec-18 14:06 46.977719 -122.476991 39 7991ft 281kts
06-Dec-18 14:07 47.041922 -122.418695 29 6792ft 266kts
06-Dec-18 14:07 47.094333 -122.374395 29 5984ft 253kts
06-Dec-18 14:09 47.160384 -122.331840 18 5648ft 218kts
06-Dec-18 14:09 47.208314 -122.313828 2 4880ft 208kts
06-Dec-18 14:11 47.266939 -122.312565 1 3769ft 154kts
06-Dec-18 14:11 47.299575 -122.312259 1 3118ft 137kts
06-Dec-18 14:12 47.337382 -122.311977 1 2419ft 136kts
06-Dec-18 14:13 47.374876 -122.311840 2 1658ft 134kts
06-Dec-18 14:14 47.411868 -122.311609 1 967ft 133kts
06-Dec-18 14:15 47.447854 -122.311148 0 436ft 102kts
06-Dec-18 14:16 47.459428 -122.309188 31 435ft 14kts
06-Dec-18 14:17 47.457939 -122.306203 180 435ft 19kts
06-Dec-18 14:18 47.452307 -122.306248 180 435ft 20kts
06-Dec-18 14:19 47.446300 -122.306310 180 435ft 19kts
06-Dec-18 14:20 47.445388 -122.304744 94 435ft 0kts

Navigation Log

Ident Type
Flight plan parsing failed, navigation log unavailable